createdAt,value
2023-02-11T00:00:45.845Z,14.70
2023-02-11T00:04:54.420Z,14.00
2023-02-11T00:09:04.020Z,14.57
2023-02-11T00:13:12.666Z,14.20
2023-02-11T00:17:21.231Z,13.30
2023-02-11T00:21:30.641Z,15.10
2023-02-11T00:25:45.107Z,14.13
2023-02-11T00:29:53.740Z,13.20
2023-02-11T00:34:02.456Z,15.20
2023-02-11T00:38:11.048Z,13.77
2023-02-11T00:42:19.606Z,15.97
2023-02-11T00:46:28.250Z,14.10
2023-02-11T00:50:36.826Z,13.17
2023-02-11T00:54:45.389Z,14.70
2023-02-11T00:58:54.097Z,14.17
2023-02-11T01:03:02.671Z,13.50
2023-02-11T01:07:11.229Z,13.00
2023-02-11T01:11:21.738Z,12.50
2023-02-11T01:15:30.600Z,13.30
2023-02-11T01:19:39.688Z,13.93
2023-02-11T01:23:48.407Z,12.30
2023-02-11T01:27:57.009Z,11.97
2023-02-11T01:32:05.665Z,13.53
2023-02-11T01:36:14.231Z,12.03
2023-02-11T01:40:22.821Z,11.70
2023-02-11T01:44:37.201Z,12.10
2023-02-11T01:48:51.653Z,11.87
2023-02-11T01:53:01.912Z,12.27
2023-02-11T01:57:22.575Z,11.37
2023-02-11T02:01:34.403Z,10.57
2023-02-11T02:05:54.592Z,11.13
2023-02-11T02:10:12.196Z,11.77
2023-02-11T02:14:21.002Z,10.13
2023-02-11T02:19:05.617Z,9.67
2023-02-11T02:23:35.182Z,13.00
2023-02-11T02:28:01.771Z,11.30
2023-02-11T02:32:47.699Z,11.00
2023-02-11T02:37:19.835Z,9.67
2023-02-11T02:41:34.507Z,10.03
2023-02-11T02:45:43.056Z,8.60
2023-02-11T02:49:51.639Z,10.20
2023-02-11T02:54:22.428Z,10.80
2023-02-11T02:58:48.966Z,9.57
2023-02-11T03:03:12.295Z,8.40
2023-02-11T03:07:32.726Z,10.20
2023-02-11T03:11:41.427Z,8.63
2023-02-11T03:15:53.212Z,9.37
2023-02-11T03:20:04.497Z,9.37
2023-02-11T03:24:18.641Z,9.50
2023-02-11T03:28:39.166Z,9.17
2023-02-11T03:32:56.444Z,8.23
2023-02-11T03:37:13.963Z,8.50
2023-02-11T03:41:24.927Z,9.53
2023-02-11T03:45:33.974Z,9.13
2023-02-11T03:49:45.728Z,8.57
2023-02-11T03:53:57.684Z,10.63
2023-02-11T03:58:06.480Z,7.63
2023-02-11T04:02:15.026Z,9.57
2023-02-11T04:06:23.591Z,7.97
2023-02-11T04:10:32.152Z,8.20
2023-02-11T04:14:40.721Z,8.83
2023-02-11T04:18:49.381Z,6.87
2023-02-11T04:22:57.947Z,7.57
2023-02-11T04:27:06.577Z,9.03
2023-02-11T04:31:15.211Z,11.00
2023-02-11T04:35:23.805Z,9.30
2023-02-11T04:39:33.283Z,9.07
2023-02-11T04:43:41.821Z,10.20
2023-02-11T04:47:50.366Z,9.60
2023-02-11T04:51:59.027Z,10.47
2023-02-11T04:56:07.665Z,9.00
2023-02-11T05:00:16.923Z,11.27
2023-02-11T05:04:25.682Z,10.70
2023-02-11T05:08:34.334Z,10.30
2023-02-11T05:12:42.902Z,10.33
2023-02-11T05:16:51.508Z,9.17
2023-02-11T05:21:00.041Z,9.03
2023-02-11T05:25:08.757Z,9.70
2023-02-11T05:29:17.315Z,10.60
2023-02-11T05:33:25.871Z,12.30
2023-02-11T05:37:34.459Z,9.53
2023-02-11T05:41:42.998Z,10.80
2023-02-11T05:45:51.999Z,11.50
2023-02-11T05:50:00.799Z,11.13
2023-02-11T05:54:09.403Z,12.50
2023-02-11T05:58:17.969Z,10.03
2023-02-11T06:02:26.634Z,11.83
2023-02-11T06:06:35.266Z,13.20
2023-02-11T06:10:46.110Z,11.67
2023-02-11T06:14:54.745Z,13.37
2023-02-11T06:19:03.374Z,12.90
2023-02-11T06:23:11.952Z,13.20
2023-02-11T06:27:20.514Z,12.67
2023-02-11T06:31:29.495Z,11.70
2023-02-11T06:35:39.901Z,12.37
2023-02-11T06:39:48.536Z,10.87
2023-02-11T06:43:57.092Z,11.70
2023-02-11T06:48:05.731Z,11.75
2023-02-11T06:52:14.305Z,10.90
2023-02-11T06:56:26.451Z,11.00
2023-02-11T07:00:35.031Z,12.50
2023-02-11T07:04:43.981Z,11.37
2023-02-11T07:08:52.526Z,12.20
2023-02-11T07:13:01.107Z,12.43
2023-02-11T07:17:09.689Z,12.60
2023-02-11T07:21:21.209Z,10.27
2023-02-11T07:25:29.763Z,12.60
2023-02-11T07:29:38.333Z,12.77
2023-02-11T07:33:46.974Z,11.77
2023-02-11T07:37:55.554Z,12.77
2023-02-11T07:42:04.835Z,14.27
2023-02-11T07:46:16.574Z,13.40
2023-02-11T07:50:25.096Z,12.70
2023-02-11T07:54:33.661Z,12.07
2023-02-11T07:58:43.041Z,9.57
2023-02-11T08:02:51.606Z,10.83
2023-02-11T08:07:00.249Z,11.97
2023-02-11T08:11:10.246Z,11.83
2023-02-11T08:15:18.862Z,12.77
2023-02-11T08:19:27.611Z,13.30
2023-02-11T08:23:38.386Z,11.40
2023-02-11T08:27:47.045Z,10.83
2023-02-11T08:31:55.634Z,12.30
2023-02-11T08:36:13.092Z,13.17
2023-02-11T08:40:21.821Z,12.37
2023-02-11T08:44:30.446Z,14.40
2023-02-11T08:48:39.077Z,11.43
2023-02-11T08:52:47.710Z,13.67
2023-02-11T08:56:56.432Z,15.97
2023-02-11T09:01:13.177Z,15.80
2023-02-11T09:05:22.598Z,16.17
2023-02-11T09:09:31.159Z,15.07
2023-02-11T09:13:42.661Z,13.97
2023-02-11T09:17:51.240Z,14.90
2023-02-11T09:22:00.088Z,14.80
2023-02-11T09:26:10.179Z,14.10
2023-02-11T09:30:18.835Z,15.37
2023-02-11T09:34:27.409Z,15.23
2023-02-11T09:38:36.260Z,17.70
2023-02-11T09:43:09.009Z,15.93
2023-02-11T09:47:35.045Z,16.00
2023-02-11T09:51:58.897Z,16.73
2023-02-11T09:56:10.573Z,17.90
2023-02-11T10:00:22.376Z,16.00
2023-02-11T10:04:43.043Z,16.30
2023-02-11T10:09:09.670Z,15.93
2023-02-11T10:13:33.202Z,16.37
2023-02-11T10:18:13.275Z,16.20
2023-02-11T10:22:24.909Z,17.03
2023-02-11T10:26:36.376Z,15.57
2023-02-11T10:31:05.775Z,17.90
2023-02-11T10:35:21.377Z,17.10
2023-02-11T10:39:30.247Z,18.97
2023-02-11T10:43:39.165Z,18.70
2023-02-11T10:47:47.721Z,17.13
2023-02-11T10:51:59.354Z,18.13
2023-02-11T10:56:09.081Z,15.90
2023-02-11T11:00:21.378Z,18.30
2023-02-11T11:04:36.428Z,17.80
2023-02-11T11:08:50.420Z,17.67
2023-02-11T11:12:59.029Z,16.40
2023-02-11T11:17:10.669Z,17.70
2023-02-11T11:21:31.450Z,21.93
2023-02-11T11:25:43.084Z,20.57
2023-02-11T11:29:54.369Z,19.13
2023-02-11T11:34:06.029Z,19.77
2023-02-11T11:38:15.799Z,19.63
2023-02-11T11:42:35.551Z,24.50
2023-02-11T11:46:46.986Z,19.50
2023-02-11T11:51:04.616Z,19.63
2023-02-11T11:55:24.898Z,15.27
2023-02-11T11:59:33.548Z,18.73
2023-02-11T12:04:01.515Z,20.83
2023-02-11T12:08:21.817Z,19.10
2023-02-11T12:12:53.372Z,19.13
2023-02-11T12:17:16.971Z,19.97
2023-02-11T12:21:40.752Z,17.23
2023-02-11T12:26:08.938Z,18.23
2023-02-11T12:30:26.182Z,16.37
2023-02-11T12:34:55.907Z,18.73
2023-02-11T12:39:27.010Z,18.40
2023-02-11T12:43:38.481Z,19.43
2023-02-11T12:48:01.532Z,19.77
2023-02-11T12:52:31.107Z,19.10
2023-02-11T12:56:48.341Z,21.20
2023-02-11T13:01:08.850Z,20.80
2023-02-11T13:05:29.528Z,21.60
2023-02-11T13:09:43.894Z,22.17
2023-02-11T13:14:04.309Z,19.37
2023-02-11T13:18:44.854Z,16.87
2023-02-11T13:22:57.176Z,18.23
2023-02-11T13:27:31.700Z,19.80
2023-02-11T13:31:40.366Z,18.20
2023-02-11T13:36:02.112Z,18.50
2023-02-11T13:40:26.094Z,18.83
2023-02-11T13:44:35.583Z,18.43
2023-02-11T13:48:49.198Z,20.63
2023-02-11T13:53:03.570Z,20.07
2023-02-11T13:57:23.724Z,18.83
2023-02-11T14:01:44.387Z,21.93
2023-02-11T14:06:37.946Z,21.03
2023-02-11T14:10:52.752Z,19.23
2023-02-11T14:15:08.062Z,19.77
2023-02-11T14:19:19.713Z,19.87
2023-02-11T14:23:28.534Z,20.20
2023-02-11T14:27:45.902Z,19.10
2023-02-11T14:32:21.104Z,19.60
2023-02-11T14:36:46.213Z,18.20
2023-02-11T14:41:06.766Z,17.73
2023-02-11T14:45:18.508Z,15.67
2023-02-11T14:49:33.540Z,17.00
2023-02-11T14:53:47.309Z,17.07
2023-02-11T14:58:17.551Z,18.57
2023-02-11T15:02:32.198Z,18.37
2023-02-11T15:06:42.701Z,18.33
2023-02-11T15:10:51.766Z,16.37
2023-02-11T15:15:01.861Z,18.73
2023-02-11T15:19:13.502Z,16.50
2023-02-11T15:23:27.493Z,17.50
2023-02-11T15:27:47.491Z,18.27
2023-02-11T15:32:07.586Z,17.60
2023-02-11T15:36:17.726Z,15.83
2023-02-11T15:40:29.719Z,16.50
2023-02-11T15:44:38.291Z,15.93
2023-02-11T15:48:50.240Z,16.57
2023-02-11T15:53:01.844Z,16.17
2023-02-11T15:57:11.535Z,13.63
2023-02-11T16:01:20.151Z,16.50
2023-02-11T16:05:40.706Z,20.33
2023-02-11T16:09:52.324Z,18.40
2023-02-11T16:14:03.234Z,19.87
2023-02-11T16:18:28.458Z,19.95
2023-02-11T16:22:34.079Z,18.60
2023-02-11T16:26:45.068Z,20.40
2023-02-11T16:30:55.299Z,19.80
2023-02-11T16:35:05.714Z,20.43
2023-02-11T16:39:14.712Z,20.10
2023-02-11T16:43:23.283Z,19.10
2023-02-11T16:47:32.021Z,19.20
2023-02-11T16:51:41.995Z,21.23
2023-02-11T16:55:51.388Z,21.07
2023-02-11T17:00:00.360Z,19.57
2023-02-11T17:04:14.791Z,18.83
2023-02-11T17:08:24.185Z,18.80
2023-02-11T17:12:32.736Z,20.23
2023-02-11T17:16:41.499Z,20.80
2023-02-11T17:20:50.188Z,21.63
2023-02-11T17:24:58.889Z,21.40
2023-02-11T17:29:09.907Z,18.90
2023-02-11T17:33:19.118Z,18.60
2023-02-11T17:37:28.733Z,21.73
2023-02-11T17:41:40.944Z,23.90
2023-02-11T17:45:49.759Z,20.90
2023-02-11T17:49:58.487Z,22.73
2023-02-11T17:54:10.040Z,24.20
2023-02-11T17:58:18.595Z,20.33
2023-02-11T18:02:27.170Z,22.30
2023-02-11T18:06:35.887Z,22.20
2023-02-11T18:10:44.439Z,22.10
2023-02-11T18:14:58.029Z,22.87
2023-02-11T18:19:07.540Z,23.27
2023-02-11T18:23:16.072Z,22.87
2023-02-11T18:27:24.655Z,19.83
2023-02-11T18:31:35.137Z,22.27
2023-02-11T18:35:45.774Z,23.37
2023-02-11T18:39:54.536Z,22.30
2023-02-11T18:44:04.429Z,25.33
2023-02-11T18:48:13.056Z,23.13
2023-02-11T18:52:21.690Z,27.17
2023-02-11T18:56:30.254Z,24.10
2023-02-11T19:00:41.046Z,23.60
2023-02-11T19:04:49.628Z,23.53
2023-02-11T19:09:01.273Z,22.63
2023-02-11T19:13:10.550Z,21.83
2023-02-11T19:17:19.130Z,23.13
2023-02-11T19:21:27.727Z,24.57
2023-02-11T19:25:36.526Z,26.93
2023-02-11T19:29:45.083Z,23.07
2023-02-11T19:33:53.633Z,22.90
2023-02-11T19:38:02.768Z,22.80
2023-02-11T19:42:11.791Z,25.00
2023-02-11T19:46:25.002Z,26.00
2023-02-11T19:50:33.522Z,24.33
2023-02-11T19:54:42.072Z,20.77
2023-02-11T19:58:50.716Z,22.83
2023-02-11T20:02:59.410Z,24.77
2023-02-11T20:07:08.783Z,23.00
2023-02-11T20:11:18.435Z,24.83
2023-02-11T20:15:27.118Z,23.57
2023-02-11T20:19:35.684Z,24.40
2023-02-11T20:23:46.371Z,25.67
2023-02-11T20:27:55.201Z,26.50
2023-02-11T20:32:03.981Z,22.17
2023-02-11T20:36:15.716Z,25.07
2023-02-11T20:40:24.278Z,24.00
2023-02-11T20:44:32.837Z,26.07
2023-02-11T20:48:41.390Z,24.80
2023-02-11T20:52:49.991Z,23.77
2023-02-11T20:56:59.641Z,21.73
2023-02-11T21:01:15.210Z,23.67
2023-02-11T21:05:23.766Z,23.37
2023-02-11T21:09:34.259Z,23.77
2023-02-11T21:13:43.549Z,24.10
2023-02-11T21:17:52.198Z,22.57
2023-02-11T21:22:01.709Z,23.43
2023-02-11T21:26:10.355Z,25.47
2023-02-11T21:30:19.042Z,24.70
2023-02-11T21:34:27.624Z,24.50
2023-02-11T21:38:37.161Z,23.10
2023-02-11T21:42:45.729Z,22.60
2023-02-11T21:46:54.326Z,22.80
2023-02-11T21:51:07.878Z,23.02
2023-02-11T21:55:16.419Z,24.80
2023-02-11T21:59:25.153Z,24.33
2023-02-11T22:03:33.731Z,24.90
2023-02-11T22:07:42.306Z,21.20
2023-02-11T22:11:50.885Z,25.00
2023-02-11T22:16:00.988Z,24.50
2023-02-11T22:20:10.211Z,21.90
2023-02-11T22:24:18.726Z,24.07
2023-02-11T22:28:27.329Z,23.27
2023-02-11T22:32:35.926Z,22.60
2023-02-11T22:36:45.355Z,20.70
2023-02-11T22:40:53.924Z,21.20
2023-02-11T22:45:03.058Z,20.87
2023-02-11T22:49:14.569Z,21.87
2023-02-11T22:53:24.757Z,24.07
2023-02-11T22:57:33.394Z,23.53
2023-02-11T23:01:42.529Z,22.90
2023-02-11T23:05:51.061Z,21.47
2023-02-11T23:09:59.631Z,20.90
2023-02-11T23:14:10.141Z,25.50
2023-02-11T23:18:18.674Z,25.47
2023-02-11T23:22:27.237Z,23.60
2023-02-11T23:26:35.944Z,23.00
2023-02-11T23:30:44.509Z,21.63
2023-02-11T23:34:53.076Z,24.27
2023-02-11T23:39:01.723Z,22.77
2023-02-11T23:43:10.300Z,22.13
2023-02-11T23:47:18.869Z,22.33
2023-02-11T23:51:27.494Z,22.27
2023-02-11T23:55:37.698Z,19.63
2023-02-11T23:59:47.810Z,25.30
